createdAt,value
2018-02-19T00:00:49.055Z,2.80
2018-02-19T00:03:15.299Z,2.70
2018-02-19T00:05:41.535Z,2.80
2018-02-19T00:08:07.877Z,2.90
2018-02-19T00:10:34.204Z,2.80
2018-02-19T00:13:00.546Z,2.80
2018-02-19T00:15:26.844Z,2.80
2018-02-19T00:17:53.107Z,2.80
2018-02-19T00:20:19.769Z,2.90
2018-02-19T00:22:46.409Z,2.90
2018-02-19T00:25:12.999Z,2.90
2018-02-19T00:27:39.355Z,3.00
2018-02-19T00:30:05.582Z,3.00
2018-02-19T00:32:31.927Z,2.90
2018-02-19T00:34:58.202Z,3.00
2018-02-19T00:37:24.405Z,3.00
2018-02-19T00:39:50.728Z,2.90
2018-02-19T00:42:17.055Z,2.80
2018-02-19T00:44:43.624Z,2.60
2018-02-19T00:47:09.901Z,2.60
2018-02-19T00:49:36.159Z,2.70
2018-02-19T00:52:02.458Z,2.70
2018-02-19T00:54:28.688Z,2.70
2018-02-19T00:56:54.995Z,2.70
2018-02-19T00:59:21.189Z,2.70
2018-02-19T01:01:48.061Z,2.70
2018-02-19T01:04:14.343Z,2.60
2018-02-19T01:06:40.595Z,2.60
2018-02-19T01:09:06.861Z,2.80
2018-02-19T01:11:33.065Z,2.90
2018-02-19T01:13:59.327Z,2.80
2018-02-19T01:16:25.537Z,2.40
2018-02-19T01:18:51.736Z,2.40
2018-02-19T01:21:17.999Z,2.60
2018-02-19T01:23:44.293Z,2.60
2018-02-19T01:26:10.525Z,2.50
2018-02-19T01:28:36.708Z,2.50
2018-02-19T01:31:02.976Z,2.40
2018-02-19T01:33:29.207Z,2.50
2018-02-19T01:35:55.425Z,2.60
2018-02-19T01:38:21.676Z,2.40
2018-02-19T01:40:48.046Z,2.50
2018-02-19T01:43:14.654Z,2.60
2018-02-19T01:45:40.938Z,2.60
2018-02-19T01:48:07.160Z,2.60
2018-02-19T01:50:33.409Z,2.50
2018-02-19T01:52:59.737Z,2.50
2018-02-19T01:55:25.922Z,2.60
2018-02-19T01:57:52.221Z,2.80
2018-02-19T02:00:18.459Z,2.60
2018-02-19T02:02:44.715Z,2.50
2018-02-19T02:05:11.358Z,2.40
2018-02-19T02:07:37.750Z,2.40
2018-02-19T02:10:03.990Z,2.50
2018-02-19T02:12:30.280Z,2.50
2018-02-19T02:14:56.516Z,2.50
2018-02-19T02:17:22.730Z,2.50
2018-02-19T02:19:49.098Z,2.50
2018-02-19T02:22:15.336Z,2.50
2018-02-19T02:24:41.555Z,2.40
2018-02-19T02:27:08.065Z,2.50
2018-02-19T02:29:34.391Z,2.40
2018-02-19T02:32:00.608Z,2.50
2018-02-19T02:34:27.683Z,2.50
2018-02-19T02:36:53.924Z,2.60
2018-02-19T02:39:20.162Z,2.60
2018-02-19T02:41:46.490Z,2.60
2018-02-19T02:44:12.766Z,2.70
2018-02-19T02:46:39.821Z,2.20
2018-02-19T02:49:06.085Z,2.00
2018-02-19T02:51:32.444Z,2.10
2018-02-19T02:53:58.656Z,2.20
2018-02-19T02:56:24.917Z,2.30
2018-02-19T02:58:51.196Z,2.30
2018-02-19T03:01:17.426Z,2.20
2018-02-19T03:03:43.628Z,2.40
2018-02-19T03:06:09.846Z,2.30
2018-02-19T03:08:36.123Z,2.40
2018-02-19T03:11:02.349Z,2.50
2018-02-19T03:13:28.562Z,2.50
2018-02-19T03:15:54.780Z,2.30
2018-02-19T03:18:21.020Z,2.00
2018-02-19T03:20:47.208Z,1.80
2018-02-19T03:23:13.483Z,1.90
2018-02-19T03:25:39.781Z,2.10
2018-02-19T03:28:06.013Z,2.10
2018-02-19T03:30:32.216Z,2.10
2018-02-19T03:32:58.451Z,2.10
2018-02-19T03:35:24.701Z,2.20
2018-02-19T03:37:50.900Z,2.20
2018-02-19T03:40:17.115Z,2.20
2018-02-19T03:42:44.127Z,2.20
2018-02-19T03:45:10.378Z,2.20
2018-02-19T03:47:36.565Z,2.20
2018-02-19T03:50:02.920Z,2.20
2018-02-19T03:52:29.156Z,2.10
2018-02-19T03:54:55.446Z,2.10
2018-02-19T03:57:21.691Z,2.20
2018-02-19T03:59:47.907Z,2.20
2018-02-19T04:02:14.143Z,2.20
2018-02-19T04:04:40.407Z,2.20
2018-02-19T04:07:06.991Z,2.20
2018-02-19T04:09:33.183Z,2.20
2018-02-19T04:11:59.519Z,2.20
2018-02-19T04:14:26.111Z,2.20
2018-02-19T04:16:52.421Z,2.20
2018-02-19T04:19:18.696Z,2.20
2018-02-19T04:21:44.900Z,2.10
2018-02-19T04:24:11.104Z,2.20
2018-02-19T04:26:37.372Z,2.10
2018-02-19T04:29:03.589Z,2.10
2018-02-19T04:31:29.855Z,1.90
2018-02-19T04:33:56.499Z,2.30
2018-02-19T04:36:22.747Z,2.30
2018-02-19T04:38:49.562Z,2.20
2018-02-19T04:41:15.844Z,2.20
2018-02-19T04:43:42.168Z,2.20
2018-02-19T04:49:08.217Z,2.00
2018-02-19T04:51:34.524Z,1.90
2018-02-19T04:54:00.785Z,1.80
2018-02-19T04:56:26.994Z,1.80
2018-02-19T04:58:53.361Z,1.80
2018-02-19T05:01:19.638Z,1.80
2018-02-19T05:03:45.873Z,1.90
2018-02-19T05:06:12.092Z,2.00
2018-02-19T05:08:38.481Z,2.20
2018-02-19T05:11:04.750Z,2.30
2018-02-19T05:13:30.978Z,2.20
2018-02-19T05:15:57.259Z,2.20
2018-02-19T05:18:23.527Z,2.20
2018-02-19T05:20:49.931Z,2.20
2018-02-19T05:23:16.517Z,1.90
2018-02-19T05:25:42.809Z,1.90
2018-02-19T05:28:09.459Z,2.00
2018-02-19T05:30:35.655Z,2.00
2018-02-19T05:33:01.886Z,2.10
2018-02-19T05:35:28.770Z,2.10
2018-02-19T05:37:54.963Z,2.10
2018-02-19T05:40:21.613Z,2.10
2018-02-19T05:42:48.511Z,2.00
2018-02-19T05:45:14.720Z,2.00
2018-02-19T05:47:40.934Z,2.00
2018-02-19T05:50:07.174Z,2.10
2018-02-19T05:52:33.402Z,2.10
2018-02-19T05:54:59.740Z,2.10
2018-02-19T05:57:26.014Z,1.90
2018-02-19T05:59:52.650Z,1.80
2018-02-19T06:02:19.275Z,1.90
2018-02-19T06:04:45.536Z,1.90
2018-02-19T06:07:11.892Z,2.00
2018-02-19T06:09:40.355Z,2.10
2018-02-19T06:12:06.690Z,2.10
2018-02-19T06:14:33.263Z,2.30
2018-02-19T06:16:59.495Z,2.30
2018-02-19T06:19:25.695Z,2.30
2018-02-19T06:21:51.940Z,2.40
2018-02-19T06:24:18.154Z,2.40
2018-02-19T06:26:44.364Z,2.20
2018-02-19T06:29:10.645Z,2.30
2018-02-19T06:31:36.918Z,2.30
2018-02-19T06:34:03.140Z,2.20
2018-02-19T06:36:29.456Z,2.10
2018-02-19T06:38:55.731Z,2.10
2018-02-19T06:41:21.997Z,2.00
2018-02-19T06:43:48.691Z,1.90
2018-02-19T06:46:15.079Z,1.90
2018-02-19T06:48:41.713Z,1.90
2018-02-19T06:51:09.216Z,2.00
2018-02-19T06:53:35.499Z,2.00
2018-02-19T06:56:02.109Z,2.00
2018-02-19T06:58:28.338Z,2.00
2018-02-19T07:00:54.657Z,2.10
2018-02-19T07:03:20.936Z,2.00
2018-02-19T07:05:47.523Z,2.00
2018-02-19T07:08:13.819Z,2.00
2018-02-19T07:10:40.078Z,2.00
2018-02-19T07:13:06.343Z,2.10
2018-02-19T07:15:32.923Z,2.10
2018-02-19T07:17:59.305Z,2.10
2018-02-19T07:20:25.557Z,2.20
2018-02-19T07:22:51.814Z,2.20
2018-02-19T07:25:18.013Z,2.20
2018-02-19T07:27:44.285Z,2.40
2018-02-19T07:30:10.498Z,2.30
2018-02-19T07:32:36.745Z,2.30
2018-02-19T07:35:03.020Z,2.30
2018-02-19T07:37:29.606Z,2.20
2018-02-19T07:39:55.815Z,2.20
2018-02-19T07:42:22.406Z,2.20
2018-02-19T07:44:48.626Z,2.30
2018-02-19T07:47:15.003Z,2.40
2018-02-19T07:49:41.525Z,2.60
2018-02-19T07:52:07.863Z,2.80
2018-02-19T07:54:34.135Z,2.80
2018-02-19T07:57:00.348Z,2.60
2018-02-19T07:59:27.028Z,2.50
2018-02-19T08:01:53.312Z,2.50
2018-02-19T08:04:19.570Z,2.60
2018-02-19T08:06:45.864Z,2.50
2018-02-19T08:09:12.095Z,2.30
2018-02-19T08:11:38.385Z,2.30
2018-02-19T08:14:04.608Z,2.50
2018-02-19T08:16:30.826Z,2.90
2018-02-19T08:18:57.092Z,3.00
2018-02-19T08:21:23.316Z,2.90
2018-02-19T08:23:49.562Z,3.10
2018-02-19T08:26:15.740Z,3.00
2018-02-19T08:28:41.979Z,2.90
2018-02-19T08:31:08.331Z,2.80
2018-02-19T08:33:34.637Z,3.00
2018-02-19T08:36:00.892Z,2.90
2018-02-19T08:38:27.134Z,2.70
2018-02-19T08:40:53.313Z,2.80
2018-02-19T08:43:19.560Z,2.80
2018-02-19T08:45:45.811Z,2.90
2018-02-19T08:48:12.098Z,3.00
2018-02-19T08:50:38.835Z,3.20
2018-02-19T08:53:05.122Z,3.20
2018-02-19T08:55:31.378Z,3.20
2018-02-19T08:57:57.628Z,3.40
2018-02-19T09:00:24.554Z,3.60
2018-02-19T09:02:50.761Z,3.60
2018-02-19T09:05:17.095Z,3.50
2018-02-19T09:07:43.325Z,3.70
2018-02-19T09:10:09.569Z,3.80
2018-02-19T09:12:35.986Z,4.00
2018-02-19T09:15:02.303Z,3.90
2018-02-19T09:17:28.582Z,4.00
2018-02-19T09:19:55.237Z,3.70
2018-02-19T09:22:21.490Z,3.70
2018-02-19T09:24:47.673Z,3.70
2018-02-19T09:27:14.252Z,3.60
2018-02-19T09:29:40.586Z,3.60
2018-02-19T09:32:06.804Z,3.70
2018-02-19T09:34:33.050Z,3.60
2018-02-19T09:36:59.284Z,3.70
2018-02-19T09:39:25.490Z,3.70
2018-02-19T09:41:51.687Z,3.80
2018-02-19T09:44:17.961Z,3.60
2018-02-19T09:46:44.237Z,3.50
2018-02-19T09:49:10.854Z,3.60
2018-02-19T09:51:37.379Z,3.50
2018-02-19T09:54:03.601Z,3.70
2018-02-19T09:56:29.898Z,4.00
2018-02-19T09:58:56.206Z,4.10
2018-02-19T10:01:22.798Z,4.30
2018-02-19T10:03:49.225Z,4.30
2018-02-19T10:06:15.498Z,4.30
2018-02-19T10:08:42.144Z,4.10
2018-02-19T10:11:09.571Z,4.30
2018-02-19T10:13:35.846Z,4.30
2018-02-19T10:16:02.048Z,4.70
2018-02-19T10:18:28.649Z,4.50
2018-02-19T10:20:54.964Z,4.50
2018-02-19T10:23:21.302Z,4.70
2018-02-19T10:25:47.525Z,4.70
2018-02-19T10:28:13.837Z,4.80
2018-02-19T10:30:40.119Z,4.20
2018-02-19T10:33:06.434Z,3.70
2018-02-19T10:35:32.703Z,3.70
2018-02-19T10:37:58.945Z,4.10
2018-02-19T10:40:25.544Z,4.20
2018-02-19T10:42:51.826Z,4.30
2018-02-19T10:45:18.091Z,4.30
2018-02-19T10:47:44.369Z,4.40
2018-02-19T10:50:10.576Z,4.50
2018-02-19T10:52:36.957Z,4.70
2018-02-19T10:55:03.262Z,4.70
2018-02-19T10:57:29.541Z,4.60
2018-02-19T10:59:56.713Z,4.50
2018-02-19T11:02:23.471Z,4.40
2018-02-19T11:04:49.740Z,4.60
2018-02-19T11:07:15.977Z,4.70
2018-02-19T11:09:42.259Z,4.70
2018-02-19T11:12:08.501Z,4.60
2018-02-19T11:14:34.783Z,4.30
2018-02-19T11:17:01.073Z,4.30
2018-02-19T11:19:27.299Z,4.30
2018-02-19T11:21:53.522Z,4.40
2018-02-19T11:24:19.770Z,4.60
2018-02-19T11:26:45.979Z,4.60
2018-02-19T11:29:12.298Z,4.60
2018-02-19T11:31:38.527Z,4.80
2018-02-19T11:34:04.915Z,5.10
2018-02-19T11:36:31.246Z,5.20
2018-02-19T11:38:57.881Z,5.10
2018-02-19T11:41:24.094Z,5.10
2018-02-19T11:43:50.334Z,5.10
2018-02-19T11:46:16.589Z,5.40
2018-02-19T11:48:43.175Z,5.10
2018-02-19T11:51:09.507Z,5.10
2018-02-19T11:53:35.764Z,5.00
2018-02-19T11:56:01.975Z,4.70
2018-02-19T11:58:28.269Z,4.60
2018-02-19T12:00:54.515Z,5.00
2018-02-19T12:03:20.725Z,4.90
2018-02-19T12:05:46.970Z,4.90
2018-02-19T12:08:13.245Z,4.90
2018-02-19T12:10:40.872Z,5.00
2018-02-19T12:13:07.117Z,5.00
2018-02-19T12:15:33.398Z,5.00
2018-02-19T12:17:59.665Z,5.10
2018-02-19T12:20:25.927Z,5.20
2018-02-19T12:22:52.196Z,5.40
2018-02-19T12:25:18.454Z,5.20
2018-02-19T12:27:44.681Z,5.30
2018-02-19T12:30:10.980Z,5.20
2018-02-19T12:32:37.245Z,5.10
2018-02-19T12:35:03.480Z,5.10
2018-02-19T12:37:29.727Z,5.00
2018-02-19T12:39:56.296Z,4.80
2018-02-19T12:42:22.575Z,4.80
2018-02-19T12:44:48.831Z,4.60
2018-02-19T12:47:15.083Z,4.40
2018-02-19T12:49:41.343Z,4.20
2018-02-19T12:52:07.607Z,4.50
2018-02-19T12:54:34.296Z,4.70
2018-02-19T12:57:00.506Z,4.70
2018-02-19T12:59:26.744Z,4.60
2018-02-19T13:01:53.458Z,4.40
2018-02-19T13:04:19.694Z,4.40
2018-02-19T13:06:45.969Z,4.20
2018-02-19T13:09:12.665Z,4.10
2018-02-19T13:11:38.974Z,4.10
2018-02-19T13:14:05.229Z,4.20
2018-02-19T13:16:31.486Z,4.20
2018-02-19T13:18:57.775Z,4.30
2018-02-19T13:21:24.020Z,4.00
2018-02-19T13:23:50.254Z,4.20
2018-02-19T13:26:16.528Z,4.40
2018-02-19T13:28:42.775Z,4.50
2018-02-19T13:31:09.984Z,4.60
2018-02-19T13:33:36.284Z,4.70
2018-02-19T13:36:03.281Z,4.60
2018-02-19T13:38:29.887Z,4.50
2018-02-19T13:40:56.170Z,4.50
2018-02-19T13:43:22.449Z,4.40
2018-02-19T13:45:48.697Z,4.20
2018-02-19T13:48:15.304Z,4.60
2018-02-19T13:50:41.513Z,4.60
2018-02-19T13:53:07.766Z,4.40
2018-02-19T13:55:34.031Z,4.50
2018-02-19T13:58:00.616Z,4.50
2018-02-19T14:00:26.841Z,4.50
2018-02-19T14:02:53.105Z,4.70
2018-02-19T14:05:19.427Z,4.70
2018-02-19T14:07:45.729Z,4.60
2018-02-19T14:10:11.984Z,4.40
2018-02-19T14:12:38.367Z,4.20
2018-02-19T14:15:04.582Z,3.90
2018-02-19T14:17:31.102Z,3.80
2018-02-19T14:19:57.715Z,4.40
2018-02-19T14:22:23.953Z,4.30
2018-02-19T14:24:50.833Z,4.40
2018-02-19T14:27:17.707Z,4.60
2018-02-19T14:29:44.550Z,4.60
2018-02-19T14:32:10.833Z,4.20
2018-02-19T14:34:37.025Z,4.00
2018-02-19T14:37:03.315Z,3.90
2018-02-19T14:39:29.549Z,3.80
2018-02-19T14:41:55.763Z,3.70
2018-02-19T14:44:22.480Z,3.70
2018-02-19T14:46:49.072Z,3.80
2018-02-19T14:49:15.332Z,3.80
2018-02-19T14:51:41.636Z,3.80
2018-02-19T14:54:07.906Z,3.90
2018-02-19T14:56:34.149Z,3.80
2018-02-19T14:59:00.399Z,3.60
2018-02-19T15:01:26.689Z,3.60
2018-02-19T15:03:53.277Z,3.30
2018-02-19T15:06:19.517Z,3.30
2018-02-19T15:08:45.781Z,3.40
2018-02-19T15:11:12.377Z,3.70
2018-02-19T15:13:38.621Z,3.80
2018-02-19T15:16:04.863Z,3.80
2018-02-19T15:18:31.097Z,3.80
2018-02-19T15:20:57.685Z,3.80
2018-02-19T15:23:25.261Z,3.80
2018-02-19T15:25:52.222Z,3.80
2018-02-19T15:28:18.476Z,3.80
2018-02-19T15:30:45.136Z,3.70
2018-02-19T15:33:11.389Z,3.70
2018-02-19T15:35:37.682Z,3.80
2018-02-19T15:38:04.060Z,3.80
2018-02-19T15:40:30.284Z,3.80
2018-02-19T15:42:56.601Z,3.80
2018-02-19T15:45:22.823Z,3.90
2018-02-19T15:47:49.135Z,4.00
2018-02-19T15:50:15.405Z,4.10
2018-02-19T15:52:41.661Z,3.90
2018-02-19T15:55:07.982Z,3.80
2018-02-19T15:57:34.245Z,3.90
2018-02-19T16:00:00.931Z,3.70
2018-02-19T16:02:27.289Z,3.70
2018-02-19T16:04:54.028Z,3.20
2018-02-19T16:07:20.402Z,3.20
2018-02-19T16:09:46.720Z,3.10
2018-02-19T16:12:12.975Z,3.00
2018-02-19T16:14:39.452Z,3.00
2018-02-19T16:17:06.135Z,3.20
2018-02-19T16:19:32.374Z,3.10
2018-02-19T16:21:58.632Z,3.20
2018-02-19T16:24:24.888Z,3.10
2018-02-19T16:26:51.118Z,3.10
2018-02-19T16:29:17.367Z,3.00
2018-02-19T16:31:43.638Z,3.00
2018-02-19T16:34:10.340Z,3.00
2018-02-19T16:36:36.590Z,3.00
2018-02-19T16:39:02.998Z,3.00
2018-02-19T16:41:29.259Z,2.70
2018-02-19T16:43:55.504Z,2.60
2018-02-19T16:46:21.762Z,2.70
2018-02-19T16:48:48.438Z,2.80
2018-02-19T16:51:14.653Z,2.80
2018-02-19T16:53:40.920Z,2.80
2018-02-19T16:56:07.143Z,3.00
2018-02-19T16:58:33.379Z,3.00
2018-02-19T17:00:59.677Z,2.90
2018-02-19T17:03:25.936Z,2.80
2018-02-19T17:05:52.210Z,2.80
2018-02-19T17:08:18.490Z,2.90
2018-02-19T17:10:44.709Z,2.90
2018-02-19T17:13:10.975Z,2.50
2018-02-19T17:15:37.156Z,2.30
2018-02-19T17:18:03.870Z,2.10
2018-02-19T17:20:30.131Z,2.10
2018-02-19T17:22:56.433Z,2.20
2018-02-19T17:25:22.668Z,2.30
2018-02-19T17:27:48.945Z,2.30
2018-02-19T17:30:15.231Z,2.20
2018-02-19T17:32:41.458Z,1.90
2018-02-19T17:35:07.745Z,1.80
2018-02-19T17:37:34.057Z,1.70
2018-02-19T17:40:00.335Z,1.80
2018-02-19T17:42:27.611Z,2.00
2018-02-19T17:44:53.890Z,2.10
2018-02-19T17:47:20.190Z,2.10
2018-02-19T17:49:46.487Z,2.20
2018-02-19T17:52:12.735Z,2.40
2018-02-19T17:54:39.116Z,2.10
2018-02-19T17:57:05.729Z,2.40
2018-02-19T17:59:32.033Z,2.40
2018-02-19T18:01:58.310Z,2.50
2018-02-19T18:04:24.832Z,2.50
2018-02-19T18:06:51.049Z,2.60
2018-02-19T18:09:17.296Z,2.40
2018-02-19T18:11:43.949Z,2.30
2018-02-19T18:14:10.304Z,2.30
2018-02-19T18:16:36.578Z,2.20
2018-02-19T18:19:03.223Z,2.40
2018-02-19T18:21:29.827Z,2.60
2018-02-19T18:23:56.083Z,2.60
2018-02-19T18:26:22.502Z,2.50
2018-02-19T18:28:48.726Z,2.50
2018-02-19T18:31:15.032Z,2.40
2018-02-19T18:33:41.285Z,2.20
2018-02-19T18:36:07.490Z,2.10
2018-02-19T18:38:33.821Z,2.20
2018-02-19T18:41:00.158Z,2.10
2018-02-19T18:43:26.439Z,2.00
2018-02-19T18:45:52.649Z,1.90
2018-02-19T18:48:19.923Z,1.90
2018-02-19T18:50:46.196Z,2.00
2018-02-19T18:53:12.508Z,2.10
2018-02-19T18:55:39.385Z,2.30
2018-02-19T18:58:05.623Z,2.30
2018-02-19T19:00:31.861Z,2.30
2018-02-19T19:02:58.142Z,2.20
2018-02-19T19:05:24.374Z,2.00
2018-02-19T19:08:02.752Z,2.00
2018-02-19T19:10:41.607Z,1.80
2018-02-19T19:13:07.964Z,1.80
2018-02-19T19:15:34.261Z,1.80
2018-02-19T19:18:01.293Z,1.80
2018-02-19T19:20:27.542Z,1.80
2018-02-19T19:22:53.770Z,1.90
2018-02-19T19:25:20.049Z,1.80
2018-02-19T19:27:46.997Z,1.60
2018-02-19T19:30:13.300Z,1.60
2018-02-19T19:32:40.445Z,1.60
2018-02-19T19:35:06.720Z,1.70
2018-02-19T19:37:33.407Z,1.70
2018-02-19T19:39:59.701Z,1.70
2018-02-19T19:42:26.578Z,1.80
2018-02-19T19:44:53.992Z,1.90
2018-02-19T19:47:20.254Z,1.90
2018-02-19T19:49:46.488Z,1.70
2018-02-19T19:52:12.805Z,1.60
2018-02-19T19:54:39.231Z,1.50
2018-02-19T19:57:06.684Z,1.60
2018-02-19T19:59:32.920Z,1.70
2018-02-19T20:01:59.236Z,1.80
2018-02-19T20:04:25.528Z,1.80
2018-02-19T20:06:51.757Z,1.80
2018-02-19T20:09:18.010Z,1.80
2018-02-19T20:11:44.363Z,1.70
2018-02-19T20:14:11.038Z,1.70
2018-02-19T20:16:37.324Z,1.70
2018-02-19T20:19:03.685Z,1.70
2018-02-19T20:21:29.921Z,1.90
2018-02-19T20:23:56.220Z,1.90
2018-02-19T20:26:22.550Z,2.00
2018-02-19T20:28:48.809Z,2.00
2018-02-19T20:31:15.084Z,2.00
2018-02-19T20:33:41.420Z,1.90
2018-02-19T20:36:08.083Z,1.60
2018-02-19T20:38:34.461Z,1.70
2018-02-19T20:41:00.810Z,1.60
2018-02-19T20:43:27.096Z,1.80
2018-02-19T20:45:53.452Z,1.90
2018-02-19T20:48:20.431Z,1.80
2018-02-19T20:50:46.764Z,1.70
2018-02-19T20:53:13.064Z,1.70
2018-02-19T20:55:40.760Z,2.00
2018-02-19T20:58:07.008Z,2.00
2018-02-19T21:00:33.297Z,2.10
2018-02-19T21:02:59.722Z,2.10
2018-02-19T21:05:25.961Z,2.00
2018-02-19T21:07:52.227Z,1.90
2018-02-19T21:10:18.564Z,1.90
2018-02-19T21:12:46.254Z,2.00
2018-02-19T21:15:12.545Z,2.00
2018-02-19T21:17:39.829Z,1.80
2018-02-19T21:20:07.877Z,1.70
2018-02-19T21:22:34.860Z,1.70
2018-02-19T21:25:01.202Z,1.60
2018-02-19T21:27:27.847Z,1.60
2018-02-19T21:29:54.536Z,1.70
2018-02-19T21:32:20.755Z,1.60
2018-02-19T21:34:47.016Z,1.60
2018-02-19T21:37:13.234Z,1.60
2018-02-19T21:39:39.523Z,1.50
2018-02-19T21:42:05.781Z,1.70
2018-02-19T21:44:32.034Z,1.70
2018-02-19T21:46:58.267Z,1.60
2018-02-19T21:49:24.487Z,1.50
2018-02-19T21:51:50.688Z,1.70
2018-02-19T21:54:17.016Z,1.90
2018-02-19T21:56:43.295Z,1.90
2018-02-19T21:59:09.902Z,1.80
2018-02-19T22:01:36.144Z,1.60
2018-02-19T22:04:02.374Z,1.60
2018-02-19T22:06:28.625Z,1.40
2018-02-19T22:08:54.916Z,1.20
2018-02-19T22:11:21.153Z,1.10
2018-02-19T22:13:47.448Z,1.10
2018-02-19T22:16:13.798Z,1.10
2018-02-19T22:18:40.984Z,1.20
2018-02-19T22:21:07.662Z,1.20
2018-02-19T22:23:33.985Z,1.20
2018-02-19T22:26:00.331Z,1.20
2018-02-19T22:28:26.601Z,1.20
2018-02-19T22:30:53.193Z,1.30
2018-02-19T22:33:19.426Z,1.30
2018-02-19T22:35:45.761Z,1.30
2018-02-19T22:38:12.006Z,1.30
2018-02-19T22:40:38.275Z,1.40
2018-02-19T22:43:04.564Z,1.30
2018-02-19T22:45:30.848Z,1.30
2018-02-19T22:47:57.064Z,1.20
2018-02-19T22:50:23.672Z,1.30
2018-02-19T22:52:49.912Z,1.30
2018-02-19T22:55:16.497Z,1.30
2018-02-19T22:57:42.821Z,1.30
2018-02-19T23:00:09.060Z,1.40
2018-02-19T23:02:35.294Z,1.30
2018-02-19T23:05:01.681Z,1.20
2018-02-19T23:07:27.879Z,1.00
2018-02-19T23:09:54.130Z,1.00
2018-02-19T23:12:20.839Z,1.00
2018-02-19T23:14:47.058Z,1.00
2018-02-19T23:17:13.257Z,1.00
2018-02-19T23:19:39.493Z,1.10
2018-02-19T23:22:05.714Z,1.10
2018-02-19T23:24:31.919Z,1.20
2018-02-19T23:26:58.159Z,1.20
2018-02-19T23:29:24.378Z,1.20
2018-02-19T23:31:50.678Z,1.30
2018-02-19T23:34:16.955Z,1.30
2018-02-19T23:36:43.201Z,1.30
2018-02-19T23:39:09.474Z,1.30
2018-02-19T23:41:35.804Z,1.30
2018-02-19T23:44:02.474Z,1.30
2018-02-19T23:46:28.829Z,1.30
2018-02-19T23:48:55.032Z,1.20
2018-02-19T23:51:21.203Z,1.20
2018-02-19T23:53:47.434Z,1.20
2018-02-19T23:56:13.606Z,1.30
2018-02-19T23:58:39.916Z,1.30
